createdAt,value
2018-09-18T00:01:14.782Z,100904.70
2018-09-18T00:03:41.795Z,100893.28
2018-09-18T00:06:08.826Z,100891.73
2018-09-18T00:08:35.831Z,100888.13
2018-09-18T00:11:02.888Z,100889.59
2018-09-18T00:13:30.311Z,100884.29
2018-09-18T00:15:57.368Z,100880.35
2018-09-18T00:18:24.419Z,100881.00
2018-09-18T00:20:51.420Z,100881.81
2018-09-18T00:23:18.592Z,100876.61
2018-09-18T00:25:45.643Z,100884.03
2018-09-18T00:28:12.721Z,100871.55
2018-09-18T00:30:39.708Z,100870.34
2018-09-18T00:33:07.107Z,100868.56
2018-09-18T00:35:34.133Z,100867.15
2018-09-18T00:38:01.106Z,100864.94
2018-09-18T00:40:28.557Z,100868.27
2018-09-18T00:42:55.536Z,100860.84
2018-09-18T00:45:22.685Z,100858.27
2018-09-18T00:47:49.695Z,100855.47
2018-09-18T00:50:16.760Z,100852.99
2018-09-18T00:52:43.751Z,100847.79
2018-09-18T00:55:10.827Z,100850.02
2018-09-18T00:57:38.879Z,100843.86
2018-09-18T01:00:06.363Z,100837.78
2018-09-18T01:02:33.351Z,100844.37
2018-09-18T01:05:00.422Z,100818.30
2018-09-18T01:07:27.447Z,100838.68
2018-09-18T01:09:54.499Z,100833.33
2018-09-18T01:12:21.650Z,100834.00
2018-09-18T01:14:58.791Z,100834.40
2018-09-18T01:17:25.775Z,100828.58
2018-09-18T01:19:52.752Z,100838.19
2018-09-18T01:22:19.736Z,100831.02
2018-09-18T01:24:46.883Z,100827.47
2018-09-18T01:27:13.852Z,100825.91
2018-09-18T01:29:41.277Z,100828.73
2018-09-18T01:32:08.284Z,100822.37
2018-09-18T01:34:35.263Z,100825.10
2018-09-18T01:37:02.648Z,100818.02
2018-09-18T01:39:29.717Z,100822.92
2018-09-18T01:41:56.699Z,100820.64
2018-09-18T01:44:23.699Z,100817.87
2018-09-18T01:46:50.671Z,100812.82
2018-09-18T01:49:17.743Z,100806.41
2018-09-18T01:51:44.759Z,100808.94
2018-09-18T01:54:11.724Z,100812.51
2018-09-18T01:56:38.831Z,100806.51
2018-09-18T01:59:05.864Z,100809.59
2018-09-18T02:01:32.923Z,100809.22
2018-09-18T02:04:00.136Z,100811.09
2018-09-18T02:06:27.492Z,100809.98
2018-09-18T02:08:54.460Z,100807.00
2018-09-18T02:11:21.455Z,100810.30
2018-09-18T02:13:48.548Z,100803.77
2018-09-18T02:16:15.528Z,100801.55
2018-09-18T02:18:42.653Z,100806.05
2018-09-18T02:21:09.981Z,100800.84
2018-09-18T02:23:36.967Z,100807.03
2018-09-18T02:26:04.031Z,100742.53
2018-09-18T02:28:31.531Z,100803.83
2018-09-18T02:30:58.508Z,100799.89
2018-09-18T02:33:25.484Z,100799.98
2018-09-18T02:35:52.479Z,100794.65
2018-09-18T02:38:19.448Z,100796.56
2018-09-18T02:40:46.515Z,100794.04
2018-09-18T02:43:13.534Z,100796.10
2018-09-18T02:45:41.156Z,100784.73
2018-09-18T02:48:08.176Z,100786.55
2018-09-18T02:50:35.461Z,100784.03
2018-09-18T02:53:02.752Z,100783.78
2018-09-18T02:55:29.755Z,100780.73
2018-09-18T02:57:56.743Z,100788.22
2018-09-18T03:00:23.731Z,100783.57
2018-09-18T03:02:50.717Z,100779.48
2018-09-18T03:05:17.715Z,100777.05
2018-09-18T03:07:45.028Z,100774.02
2018-09-18T03:10:12.116Z,100774.67
2018-09-18T03:12:39.110Z,100770.39
2018-09-18T03:15:06.128Z,100775.20
2018-09-18T03:17:33.180Z,100774.18
2018-09-18T03:20:00.166Z,100774.37
2018-09-18T03:22:27.239Z,100772.48
2018-09-18T03:24:54.203Z,100768.52
2018-09-18T03:27:21.493Z,100767.50
2018-09-18T03:29:48.494Z,100756.97
2018-09-18T03:32:15.460Z,100762.02
2018-09-18T03:34:42.705Z,100763.22
2018-09-18T03:37:09.709Z,100753.98
2018-09-18T03:39:36.687Z,100748.63
2018-09-18T03:42:03.708Z,100746.11
2018-09-18T03:44:30.766Z,100748.32
2018-09-18T03:46:57.757Z,100744.50
2018-09-18T03:49:24.765Z,100748.84
2018-09-18T03:51:51.760Z,100747.33
2018-09-18T03:54:18.902Z,100739.91
2018-09-18T03:56:48.223Z,100744.65
2018-09-18T03:59:15.223Z,100739.48
2018-09-18T04:01:42.204Z,100737.06
2018-09-18T04:04:09.428Z,100738.98
2018-09-18T04:06:36.434Z,100738.17
2018-09-18T04:09:06.395Z,100737.40
2018-09-18T04:11:33.379Z,100735.92
2018-09-18T04:14:00.508Z,100733.09
2018-09-18T04:16:27.577Z,100730.97
2018-09-18T04:18:54.573Z,100732.78
2018-09-18T04:21:26.657Z,100726.23
2018-09-18T04:23:53.624Z,100723.61
2018-09-18T04:26:20.603Z,100728.66
2018-09-18T04:28:47.809Z,100724.87
2018-09-18T04:31:14.798Z,100715.95
2018-09-18T04:33:41.774Z,100720.59
2018-09-18T04:36:08.852Z,100709.09
2018-09-18T04:38:35.845Z,100710.69
2018-09-18T04:41:02.996Z,100706.53
2018-09-18T04:43:31.068Z,100712.08
2018-09-18T04:45:58.220Z,100710.69
2018-09-18T04:48:25.184Z,100715.89
2018-09-18T04:50:52.463Z,100711.67
2018-09-18T04:53:19.432Z,100714.20
2018-09-18T04:55:46.393Z,100707.73
2018-09-18T04:58:13.727Z,100708.66
2018-09-18T05:00:47.743Z,100697.61
2018-09-18T05:03:14.731Z,100705.05
2018-09-18T05:05:41.799Z,100698.28
2018-09-18T05:08:08.777Z,100704.53
2018-09-18T05:10:35.781Z,100707.06
2018-09-18T05:13:02.939Z,100709.92
2018-09-18T05:15:30.151Z,100705.98
2018-09-18T05:17:57.147Z,100702.20
2018-09-18T05:20:24.240Z,100707.33
2018-09-18T05:22:51.303Z,100708.66
2018-09-18T05:25:18.315Z,100709.30
2018-09-18T05:27:45.301Z,100708.59
2018-09-18T05:30:12.305Z,100710.96
2018-09-18T05:32:39.516Z,100709.45
2018-09-18T05:35:06.556Z,100713.67
2018-09-18T05:37:33.529Z,100706.47
2018-09-18T05:40:00.499Z,100710.74
2018-09-18T05:42:27.475Z,100716.09
2018-09-18T05:44:54.519Z,100709.61
2018-09-18T05:47:21.534Z,100713.70
2018-09-18T05:49:48.563Z,100707.73
2018-09-18T05:52:15.891Z,100710.26
2018-09-18T05:54:42.963Z,100707.83
2018-09-18T05:57:10.288Z,100703.12
2018-09-18T05:59:37.750Z,100703.27
2018-09-18T06:02:05.031Z,100705.95
2018-09-18T06:04:31.996Z,100706.22
2018-09-18T06:06:59.738Z,100705.05
2018-09-18T06:09:26.709Z,100704.90
2018-09-18T06:11:53.758Z,100699.85
2018-09-18T06:14:20.777Z,100705.47
2018-09-18T06:16:47.837Z,100697.19
2018-09-18T06:19:14.855Z,100696.69
2018-09-18T06:21:43.203Z,100689.20
2018-09-18T06:24:10.318Z,100693.38
2018-09-18T06:26:37.313Z,100691.56
2018-09-18T06:29:04.331Z,100698.11
2018-09-18T06:31:31.348Z,100697.23
2018-09-18T06:33:58.328Z,100695.33
2018-09-18T06:36:25.371Z,100692.90
2018-09-18T06:38:52.467Z,100695.71
2018-09-18T06:41:19.755Z,100690.25
2018-09-18T06:43:46.747Z,100691.80
2018-09-18T06:46:13.719Z,100693.61
2018-09-18T06:48:40.765Z,100694.63
2018-09-18T06:51:08.168Z,100691.58
2018-09-18T06:53:35.154Z,100690.38
2018-09-18T06:56:02.137Z,100685.47
2018-09-18T06:58:29.216Z,100684.93
2018-09-18T07:00:56.407Z,100683.12
2018-09-18T07:03:23.470Z,100683.80
2018-09-18T07:05:50.463Z,100685.52
2018-09-18T07:08:18.157Z,100682.17
2018-09-18T07:10:45.157Z,100682.36
2018-09-18T07:13:12.156Z,100683.82
2018-09-18T07:15:39.905Z,100678.34
2018-09-18T07:18:06.975Z,100676.79
2018-09-18T07:20:33.983Z,100680.31
2018-09-18T07:23:01.091Z,100678.23
2018-09-18T07:25:28.073Z,100679.05
2018-09-18T07:27:55.099Z,100671.56
2018-09-18T07:30:22.408Z,100663.13
2018-09-18T07:32:49.476Z,100670.53
2018-09-18T07:35:16.819Z,100663.45
2018-09-18T07:37:43.799Z,100664.17
2018-09-18T07:40:10.879Z,100667.48
2018-09-18T07:42:38.236Z,100664.72
2018-09-18T07:45:05.360Z,100668.89
2018-09-18T07:47:32.351Z,100667.12
2018-09-18T07:49:59.432Z,100669.02
2018-09-18T07:52:26.419Z,100668.95
2018-09-18T07:54:53.406Z,100673.27
2018-09-18T07:57:20.435Z,100672.98
2018-09-18T07:59:47.515Z,100674.11
2018-09-18T08:02:14.527Z,100666.41
2018-09-18T08:04:41.706Z,100665.77
2018-09-18T08:07:10.294Z,100666.12
2018-09-18T08:09:37.385Z,100661.41
2018-09-18T08:12:04.478Z,100662.17
2018-09-18T08:14:31.452Z,100672.41
2018-09-18T08:16:58.452Z,100662.64
2018-09-18T08:19:25.471Z,100663.85
2018-09-18T08:21:52.438Z,100665.85
2018-09-18T08:24:19.799Z,100665.19
2018-09-18T08:26:46.896Z,100665.77
2018-09-18T08:29:13.969Z,100666.09
2018-09-18T08:31:41.096Z,100663.41
2018-09-18T08:34:08.088Z,100668.70
2018-09-18T08:36:35.464Z,100664.72
2018-09-18T08:39:04.333Z,100667.13
2018-09-18T08:41:31.370Z,100664.98
2018-09-18T08:43:58.360Z,100668.95
2018-09-18T08:46:25.444Z,100658.23
2018-09-18T08:48:54.484Z,100655.13
2018-09-18T08:51:21.795Z,100658.70
2018-09-18T08:53:48.852Z,100658.95
2018-09-18T08:56:15.945Z,100651.10
2018-09-18T08:58:43.021Z,100654.99
2018-09-18T09:01:10.404Z,100651.84
2018-09-18T09:03:37.348Z,100642.30
2018-09-18T09:06:04.495Z,100647.33
2018-09-18T09:08:32.059Z,100647.88
2018-09-18T09:10:59.474Z,100637.08
2018-09-18T09:13:26.460Z,100633.79
2018-09-18T09:15:54.063Z,100626.87
2018-09-18T09:18:21.770Z,100627.02
2018-09-18T09:20:48.969Z,100618.62
2018-09-18T09:23:15.869Z,100621.28
2018-09-18T09:25:44.324Z,100617.72
2018-09-18T09:28:11.421Z,100617.51
2018-09-18T09:30:38.387Z,100621.00
2018-09-18T09:33:05.712Z,100616.05
2018-09-18T09:35:32.903Z,100619.25
2018-09-18T09:37:59.875Z,100615.02
2018-09-18T09:40:27.039Z,100615.58
2018-09-18T09:42:54.055Z,100611.77
2018-09-18T09:45:21.094Z,100609.00
2018-09-18T09:47:48.535Z,100610.80
2018-09-18T09:50:17.220Z,100611.36
2018-09-18T09:52:44.444Z,100602.89
2018-09-18T09:55:11.962Z,100607.69
2018-09-18T09:57:38.951Z,100610.30
2018-09-18T10:00:06.691Z,100609.56
2018-09-18T10:02:39.600Z,100604.45
2018-09-18T10:05:06.611Z,100596.38
2018-09-18T10:07:33.801Z,100595.95
2018-09-18T10:10:00.848Z,100594.81
2018-09-18T10:12:27.951Z,100591.41
2018-09-18T10:14:54.945Z,100590.58
2018-09-18T10:17:21.987Z,100585.86
2018-09-18T10:19:49.445Z,100576.06
2018-09-18T10:22:16.588Z,100577.75
2018-09-18T10:24:43.591Z,100576.92
2018-09-18T10:27:11.207Z,100575.65
2018-09-18T10:29:38.184Z,100579.54
2018-09-18T10:32:05.282Z,100577.84
2018-09-18T10:34:32.475Z,100572.27
2018-09-18T10:36:59.475Z,100572.66
2018-09-18T10:39:33.392Z,100561.97
2018-09-18T10:42:00.440Z,100561.52
2018-09-18T10:44:27.375Z,100556.80
2018-09-18T10:46:54.360Z,100561.05
2018-09-18T10:49:21.627Z,100558.91
2018-09-18T10:51:48.715Z,100553.28
2018-09-18T10:54:15.823Z,100548.91
2018-09-18T10:56:43.324Z,100542.88
2018-09-18T10:59:10.483Z,100539.00
2018-09-18T11:01:37.474Z,100542.41
2018-09-18T11:04:04.487Z,100538.50
2018-09-18T11:06:31.484Z,100533.77
2018-09-18T11:08:58.483Z,100537.17
2018-09-18T11:11:25.551Z,100536.70
2018-09-18T11:13:52.500Z,100538.44
2018-09-18T11:16:19.777Z,100541.39
2018-09-18T11:18:47.117Z,100535.34
2018-09-18T11:21:14.205Z,100530.06
2018-09-18T11:23:41.203Z,100528.23
2018-09-18T11:26:08.275Z,100528.17
2018-09-18T11:28:35.253Z,100524.71
2018-09-18T11:31:02.376Z,100516.91
2018-09-18T11:33:29.641Z,100513.06
2018-09-18T11:35:56.793Z,100503.60
2018-09-18T11:38:23.764Z,100505.66
2018-09-18T11:40:50.819Z,100504.29
2018-09-18T11:43:17.896Z,100503.00
2018-09-18T11:45:45.436Z,100490.40
2018-09-18T11:48:12.481Z,100478.56
2018-09-18T11:50:39.444Z,100486.71
2018-09-18T11:53:06.913Z,100480.63
2018-09-18T11:55:33.989Z,100467.96
2018-09-18T11:58:01.212Z,100474.01
2018-09-18T12:00:28.265Z,100471.31
2018-09-18T12:02:55.324Z,100469.83
2018-09-18T12:05:22.243Z,100469.36
2018-09-18T12:07:49.299Z,100461.44
2018-09-18T12:10:16.379Z,100470.27
2018-09-18T12:12:43.841Z,100466.17
2018-09-18T12:15:10.821Z,100469.24
2018-09-18T12:17:37.865Z,100471.22
2018-09-18T12:20:04.917Z,100464.52
2018-09-18T12:22:31.988Z,100468.88
2018-09-18T12:24:59.026Z,100458.92
2018-09-18T12:27:26.198Z,100449.53
2018-09-18T12:29:53.273Z,100448.45
2018-09-18T12:32:20.333Z,100437.88
2018-09-18T12:34:47.423Z,100445.58
2018-09-18T12:37:14.404Z,100438.09
2018-09-18T12:39:41.775Z,100439.20
2018-09-18T12:42:08.889Z,100445.47
2018-09-18T12:44:35.751Z,100444.52
2018-09-18T12:47:03.011Z,100443.98
2018-09-18T12:49:30.184Z,100440.22
2018-09-18T12:51:57.016Z,100437.73
2018-09-18T12:54:24.308Z,100444.29
2018-09-18T12:56:51.383Z,100441.02
2018-09-18T12:59:18.373Z,100435.22
2018-09-18T13:01:46.075Z,100441.59
2018-09-18T13:04:13.060Z,100432.19
2018-09-18T13:06:40.128Z,100428.88
2018-09-18T13:09:08.499Z,100428.94
2018-09-18T13:11:35.629Z,100424.22
2018-09-18T13:14:02.694Z,100416.56
2018-09-18T13:16:29.699Z,100425.77
2018-09-18T13:18:56.667Z,100423.53
2018-09-18T13:29:23.289Z,100413.69
2018-09-18T13:31:50.359Z,100416.62
2018-09-18T13:34:17.351Z,100410.97
2018-09-18T13:36:44.911Z,100411.74
2018-09-18T13:39:11.964Z,100405.36
2018-09-18T13:41:39.035Z,100407.83
2018-09-18T13:44:06.255Z,100418.31
2018-09-18T13:46:33.413Z,100399.97
2018-09-18T13:49:00.537Z,100396.42
2018-09-18T13:51:27.624Z,100386.58
2018-09-18T13:53:54.640Z,100386.98
2018-09-18T13:56:22.199Z,100383.29
2018-09-18T13:58:49.123Z,100379.76
2018-09-18T14:01:16.231Z,100381.15
2018-09-18T14:03:43.376Z,100376.30
2018-09-18T14:06:10.552Z,100375.31
2018-09-18T14:08:37.536Z,100384.72
2018-09-18T14:11:04.661Z,100374.20
2018-09-18T14:13:31.789Z,100373.94
2018-09-18T14:15:58.781Z,100372.24
2018-09-18T14:18:25.876Z,100363.05
2018-09-18T14:20:52.863Z,100365.23
2018-09-18T14:23:19.844Z,100367.56
2018-09-18T14:25:46.883Z,100356.67
2018-09-18T14:28:13.844Z,100355.22
2018-09-18T14:30:40.815Z,100353.14
2018-09-18T14:33:08.141Z,100355.76
2018-09-18T14:35:35.105Z,100350.10
2018-09-18T14:38:02.132Z,100354.67
2018-09-18T14:40:29.449Z,100352.50
2018-09-18T14:42:56.396Z,100349.53
2018-09-18T14:45:23.473Z,100351.33
2018-09-18T14:47:50.643Z,100348.13
2018-09-18T14:50:17.690Z,100349.80
2018-09-18T14:52:44.740Z,100352.06
2018-09-18T14:55:11.715Z,100352.77
2018-09-18T14:57:38.824Z,100354.23
2018-09-18T15:00:05.902Z,100349.05
2018-09-18T15:02:32.935Z,100341.83
2018-09-18T15:05:00.014Z,100343.20
2018-09-18T15:07:27.283Z,100341.95
2018-09-18T15:09:54.318Z,100345.86
2018-09-18T15:12:21.303Z,100338.98
2018-09-18T15:14:48.374Z,100342.87
2018-09-18T15:17:15.312Z,100341.17
2018-09-18T15:19:42.375Z,100333.48
2018-09-18T15:22:09.362Z,100336.14
2018-09-18T15:24:37.027Z,100332.26
2018-09-18T15:27:04.108Z,100334.02
2018-09-18T15:29:31.271Z,100331.43
2018-09-18T15:31:58.628Z,100333.22
2018-09-18T15:34:25.563Z,100340.55
2018-09-18T15:36:52.551Z,100342.33
2018-09-18T15:39:20.441Z,100338.05
2018-09-18T15:41:47.572Z,100346.67
2018-09-18T15:44:14.673Z,100340.33
2018-09-18T15:46:41.726Z,100337.27
2018-09-18T15:49:08.704Z,100336.48
2018-09-18T15:51:35.820Z,100333.55
2018-09-18T15:54:02.773Z,100335.84
2018-09-18T15:56:29.761Z,100336.30
2018-09-18T15:58:56.776Z,100341.11
2018-09-18T16:01:23.883Z,100340.31
2018-09-18T16:03:50.910Z,100344.83
2018-09-18T16:06:17.969Z,100342.30
2018-09-18T16:08:44.960Z,100341.94
2018-09-18T16:11:11.968Z,100348.50
2018-09-18T16:13:38.988Z,100341.27
2018-09-18T16:16:06.037Z,100344.88
2018-09-18T16:18:33.506Z,100341.92
2018-09-18T16:21:00.518Z,100346.75
2018-09-18T16:23:27.608Z,100345.80
2018-09-18T16:25:54.958Z,100348.23
2018-09-18T16:28:22.030Z,100348.23
2018-09-18T16:31:00.334Z,100352.50
2018-09-18T16:33:27.373Z,100358.58
2018-09-18T16:35:54.356Z,100354.30
2018-09-18T16:38:21.370Z,100353.56
2018-09-18T16:40:48.472Z,100361.55
2018-09-18T16:43:15.583Z,100363.89
2018-09-18T16:45:42.559Z,100363.89
2018-09-18T16:48:09.573Z,100363.55
2018-09-18T16:50:36.522Z,100364.60
2018-09-18T16:53:03.503Z,100374.95
2018-09-18T16:55:30.962Z,100379.79
2018-09-18T16:57:57.960Z,100373.92
2018-09-18T17:00:25.062Z,100387.88
2018-09-18T17:02:52.037Z,100344.09
2018-09-18T17:05:19.021Z,100404.73
2018-09-18T17:07:45.992Z,100414.52
2018-09-18T17:10:13.368Z,100424.23
2018-09-18T17:12:40.521Z,100432.72
2018-09-18T17:15:07.560Z,100438.86
2018-09-18T17:17:34.658Z,100440.28
2018-09-18T17:20:01.627Z,100447.19
2018-09-18T17:22:28.640Z,100448.54
2018-09-18T17:24:56.061Z,100455.38
2018-09-18T17:27:23.028Z,100457.08
2018-09-18T17:29:50.008Z,100465.19
2018-09-18T17:32:17.202Z,100462.52
2018-09-18T17:34:44.192Z,100465.48
2018-09-18T17:37:11.168Z,100475.28
2018-09-18T17:39:38.463Z,100477.74
2018-09-18T17:42:05.484Z,100481.89
2018-09-18T17:44:32.480Z,100492.06
2018-09-18T17:46:59.791Z,100496.69
2018-09-18T17:49:26.786Z,100500.86
2018-09-18T17:51:54.091Z,100502.89
2018-09-18T17:54:21.396Z,100517.31
2018-09-18T17:56:48.420Z,100524.05
2018-09-18T17:59:15.355Z,100526.47
2018-09-18T18:01:42.366Z,100523.45
2018-09-18T18:04:09.600Z,100530.28
2018-09-18T18:06:36.593Z,100548.16
2018-09-18T18:09:05.919Z,100551.69
2018-09-18T18:11:32.954Z,100555.09
2018-09-18T18:13:59.971Z,100561.33
2018-09-18T18:16:27.262Z,100567.50
2018-09-18T18:18:54.242Z,100567.34
2018-09-18T18:21:21.226Z,100567.56
2018-09-18T18:23:48.576Z,100567.94
2018-09-18T18:26:15.593Z,100575.55
2018-09-18T18:28:42.596Z,100578.38
2018-09-18T18:31:10.002Z,100579.56
2018-09-18T18:33:36.985Z,100580.34
2018-09-18T18:36:03.981Z,100583.11
2018-09-18T18:38:31.162Z,100592.30
2018-09-18T18:40:58.325Z,100602.73
2018-09-18T18:43:25.387Z,100601.78
2018-09-18T18:45:52.404Z,100613.50
2018-09-18T18:48:19.549Z,100609.11
2018-09-18T18:50:46.536Z,100620.95
2018-09-18T18:53:13.518Z,100625.85
2018-09-18T18:55:40.800Z,100630.41
2018-09-18T18:58:07.784Z,100634.67
2018-09-18T19:00:34.863Z,100633.31
2018-09-18T19:03:01.859Z,100638.69
2018-09-18T19:05:28.844Z,100653.38
2018-09-18T19:07:55.802Z,100648.20
2018-09-18T19:10:23.302Z,100649.48
2018-09-18T19:12:50.395Z,100653.31
2018-09-18T19:15:17.348Z,100658.94
2018-09-18T19:17:44.630Z,100663.86
2018-09-18T19:20:11.610Z,100662.23
2018-09-18T19:22:38.574Z,100671.51
2018-09-18T19:25:06.095Z,100669.59
2018-09-18T19:27:33.070Z,100672.84
2018-09-18T19:30:00.050Z,100679.27
2018-09-18T19:32:27.119Z,100678.19
2018-09-18T19:34:54.328Z,100683.72
2018-09-18T19:37:21.299Z,100680.39
2018-09-18T19:39:48.292Z,100684.36
2018-09-18T19:42:15.264Z,100692.95
2018-09-18T19:44:42.583Z,100691.95
2018-09-18T19:47:09.571Z,100694.44
2018-09-18T19:49:39.009Z,100703.10
2018-09-18T19:52:12.860Z,100700.47
2018-09-18T19:54:40.625Z,100702.14
2018-09-18T19:57:08.186Z,100712.61
2018-09-18T19:59:35.161Z,100692.52
2018-09-18T20:02:02.185Z,100718.79
2018-09-18T20:04:29.191Z,100713.39
2018-09-18T20:06:56.187Z,100709.93
2018-09-18T20:09:23.315Z,100708.47
2018-09-18T20:11:50.620Z,100718.07
2018-09-18T20:14:17.592Z,100716.84
2018-09-18T20:16:44.596Z,100719.98
2018-09-18T20:19:11.978Z,100717.92
2018-09-18T20:21:38.959Z,100718.03
2018-09-18T20:24:05.962Z,100720.47
2018-09-18T20:26:33.339Z,100719.55
2018-09-18T20:29:00.457Z,100722.78
2018-09-18T20:31:27.329Z,100734.03
2018-09-18T20:33:54.303Z,100733.91
2018-09-18T20:36:21.442Z,100732.44
2018-09-18T20:38:48.436Z,100748.88
2018-09-18T20:41:15.416Z,100745.08
2018-09-18T20:43:42.419Z,100738.94
2018-09-18T20:46:09.576Z,100738.43
2018-09-18T20:48:36.712Z,100755.47
2018-09-18T20:51:03.995Z,100742.98
2018-09-18T20:53:31.003Z,100750.32
2018-09-18T20:56:04.979Z,100742.56
2018-09-18T20:58:32.516Z,100745.52
2018-09-18T21:00:59.524Z,100747.95
2018-09-18T21:03:26.519Z,100751.16
2018-09-18T21:05:53.515Z,100749.77
2018-09-18T21:08:20.703Z,100749.54
2018-09-18T21:10:47.689Z,100754.11
2018-09-18T21:13:15.000Z,100759.09
2018-09-18T21:15:42.089Z,100764.88
2018-09-18T21:18:09.144Z,100764.70
2018-09-18T21:20:36.396Z,100761.89
2018-09-18T21:23:03.368Z,100767.87
2018-09-18T21:26:10.060Z,100767.08
2018-09-18T21:28:37.320Z,100763.51
2018-09-18T21:31:04.480Z,100765.50
2018-09-18T21:33:31.555Z,100771.27
2018-09-18T21:35:58.991Z,100759.73
2018-09-18T21:38:26.021Z,100769.99
2018-09-18T21:40:53.016Z,100773.38
2018-09-18T21:43:20.024Z,100775.31
2018-09-18T21:45:47.759Z,100774.86
2018-09-18T21:48:14.758Z,100774.65
2018-09-18T21:50:42.538Z,100772.56
2018-09-18T21:53:11.470Z,100772.00
2018-09-18T21:55:38.463Z,100770.59
2018-09-18T21:58:06.182Z,100778.31
2018-09-18T22:00:33.184Z,100773.77
2018-09-18T22:03:00.882Z,100777.28
2018-09-18T22:05:28.466Z,100786.07
2018-09-18T22:07:55.497Z,100780.28
2018-09-18T22:10:22.566Z,100786.63
2018-09-18T22:12:49.900Z,100790.18
2018-09-18T22:15:16.903Z,100787.42
2018-09-18T22:17:43.885Z,100792.80
2018-09-18T22:20:11.206Z,100785.84
2018-09-18T22:22:38.224Z,100790.06
2018-09-18T22:25:05.437Z,100792.59
2018-09-18T22:27:32.621Z,100793.14
2018-09-18T22:29:59.682Z,100800.52
2018-09-18T22:32:26.707Z,100804.21
2018-09-18T22:34:53.782Z,100805.61
2018-09-18T22:37:20.800Z,100805.05
2018-09-18T22:39:47.867Z,100799.45
2018-09-18T22:42:14.926Z,100790.45
2018-09-18T22:44:42.234Z,100796.34
2018-09-18T22:47:09.320Z,100787.05
2018-09-18T22:49:36.307Z,100790.38
2018-09-18T22:52:03.328Z,100792.70
2018-09-18T22:54:30.491Z,100791.77
2018-09-18T22:56:57.562Z,100794.55
2018-09-18T22:59:24.576Z,100798.64
2018-09-18T23:01:51.681Z,100799.30
2018-09-18T23:04:18.746Z,100798.31
2018-09-18T23:06:46.063Z,100803.27
2018-09-18T23:09:13.126Z,100799.87
2018-09-18T23:11:47.173Z,100807.88
2018-09-18T23:14:14.283Z,100806.45
2018-09-18T23:16:41.621Z,100805.06
2018-09-18T23:19:08.917Z,100806.24
2018-09-18T23:21:35.980Z,100807.96
2018-09-18T23:24:02.973Z,100809.56
2018-09-18T23:26:29.948Z,100809.23
2018-09-18T23:28:58.095Z,100804.08
2018-09-18T23:31:25.114Z,100802.89
2018-09-18T23:33:52.090Z,100805.22
2018-09-18T23:36:19.332Z,100805.06
2018-09-18T23:38:46.305Z,100809.69
2018-09-18T23:41:13.423Z,100810.05
2018-09-18T23:43:40.491Z,100803.63
2018-09-18T23:46:07.462Z,100804.03
2018-09-18T23:48:34.452Z,100802.23
2018-09-18T23:51:01.452Z,100808.17
2018-09-18T23:53:28.522Z,100810.70
2018-09-18T23:55:55.911Z,100797.81
2018-09-18T23:58:22.879Z,100809.44
